DW2802 Ogijares ES current weather conditions

sailwx.info

Wind from 340

Air temperature 30.0° C
Dewpoint 14.5° C

Last reported at 2014-Sep-01 10:43 UTC.
Time now 2014-Sep-01 11:20 UTC

Location: N 37°07' W 003°36'.
View on Google Maps.

See reports from other nearby stations

  
Tides and Currents Weather Stations Pressure Air Temp Water Temp Dewpoint Dewpoint Depression Visibility Wind Speed Wind Dir Waves Ship Positions
date/time (UTC)wind fromknots sea level pressurealtimeterstation pressurevisibilityair tempwater tempwave heightnotes
2014-Sep-01 10:43 340 30.0
2014-Sep-01 10:28 360 30.0
2014-Sep-01 10:13 355 1 gusting 5 28.9
2014-Sep-01 09:58 241 27.8
2014-Sep-01 09:43 239 27.8
2014-Sep-01 09:28 206 27.2
2014-Sep-01 09:13 193 26.7
2014-Sep-01 08:58 193 26.1
2014-Sep-01 08:43 193 25.6
2014-Sep-01 08:28 194 24.4
2014-Sep-01 08:13 192 23.9
2014-Sep-01 07:58 191 23.9
2014-Sep-01 07:43 191 23.9
2014-Sep-01 07:27 190 23.9
2014-Sep-01 07:12 190 22.8
2014-Sep-01 06:57 190 21.7
2014-Sep-01 06:42 190 20.6
2014-Sep-01 06:27 190 20.6
2014-Sep-01 06:12 190 20.0
2014-Sep-01 05:57 190 20.0
2014-Sep-01 05:42 191 20.0
2014-Sep-01 05:27 200 20.6
2014-Sep-01 05:12 200 20.0
2014-Sep-01 04:57 200 20.0
2014-Sep-01 04:42 200 20.0
2014-Sep-01 04:27 200 20.0
2014-Sep-01 04:12 200 20.6
2014-Sep-01 03:57 200 20.6
2014-Sep-01 03:42 200 20.6
2014-Sep-01 03:27 200 20.6
2014-Sep-01 03:12 200 20.6
2014-Sep-01 02:57 200 21.1
2014-Sep-01 02:42 200 21.1
2014-Sep-01 02:27 200 21.1
2014-Sep-01 02:12 200 21.1
2014-Sep-01 01:57 200 21.7
2014-Sep-01 01:42 200 21.7
2014-Sep-01 01:27 200 22.2
2014-Sep-01 01:12 200 22.2
2014-Sep-01 00:57 200 22.8
2014-Sep-01 00:42 200 22.8
2014-Sep-01 00:27 200 22.8
2014-Sep-01 00:11 200 23.3
2014-Aug-31 23:56 200 23.3
2014-Aug-31 23:41 200 23.3
2014-Aug-31 23:26 200 23.3
2014-Aug-31 23:11 200 23.3
2014-Aug-31 22:56 200 23.3
2014-Aug-31 22:41 200 23.9
2014-Aug-31 22:26 200 24.4
2014-Aug-31 22:11 200 24.4
2014-Aug-31 21:56 200 25.0
2014-Aug-31 21:41 200 25.6
2014-Aug-31 21:26 200 25.0
2014-Aug-31 21:11 200 25.0
2014-Aug-31 20:56 200 1 gusting 5 25.0
2014-Aug-31 20:41 205 25.0
2014-Aug-31 20:26 209 1 gusting 4 25.6
2014-Aug-31 20:11 202 25.6
2014-Aug-31 19:56 202 26.7
2014-Aug-31 19:41 202 27.2
2014-Aug-31 19:26 205 27.2
2014-Aug-31 19:11 188 27.8
2014-Aug-31 18:56 189 0 gusting 2 27.8
2014-Aug-31 18:41 190 1 gusting 5 28.3
2014-Aug-31 18:26 207 1 gusting 5 29.4
2014-Aug-31 18:11 213 30.6
2014-Aug-31 17:56 212 0 gusting 4 30.6
2014-Aug-31 17:41 213 2 gusting 6 30.6
2014-Aug-31 17:26 217 4 gusting 6 31.1
2014-Aug-31 17:11 173 3 gusting 9 31.1
2014-Aug-31 16:56 198 4 gusting 7 31.1
2014-Aug-31 16:41 186 2 gusting 6 31.1
2014-Aug-31 16:26 157 2 gusting 6 31.7
2014-Aug-31 16:11 202 4 gusting 7 31.7
2014-Aug-31 15:56 223 5 gusting 8 31.1
2014-Aug-31 15:41 126 4 gusting 10 30.6
2014-Aug-31 15:26 150 6 gusting 10 30.6
2014-Aug-31 15:11 194 2 gusting 6 30.6
2014-Aug-31 14:56 171 4 gusting 9 30.6
2014-Aug-31 14:41 159 6 gusting 13 30.0
2014-Aug-31 14:26 209 8 gusting 13 30.0
2014-Aug-31 14:11 215 7 gusting 16 30.6
2014-Aug-31 13:56 232 5 gusting 10 30.6
2014-Aug-31 13:41 162 5 gusting 10 30.0
2014-Aug-31 13:26 259 8 gusting 12 30.0
2014-Aug-31 13:11 251 6 gusting 9 30.0
2014-Aug-31 12:56 242 2 gusting 10 30.0
2014-Aug-31 12:41 240 4 gusting 9 30.0
2014-Aug-31 12:25 260 5 gusting 12 29.4
2014-Aug-31 12:10 244 4 gusting 8 30.0
2014-Aug-31 11:55 360 2 gusting 7 30.0
2014-Aug-31 11:40 311 28.9
2014-Aug-31 11:25 313 2 gusting 5 28.9
2014-Aug-31 11:10 327 1 gusting 6 28.3
2014-Aug-31 10:55 308 2 gusting 6 27.8
2014-Aug-31 10:40 321 1 gusting 6 27.8
2014-Aug-31 10:25 337 0 gusting 4 27.8
2014-Aug-31 10:10 021 5 gusting 7 27.2
2014-Aug-31 09:55 344 3 gusting 8 26.1
2014-Aug-31 09:40 306 0 gusting 6 25.6
2014-Aug-31 09:25 257 3 gusting 6 25.0
2014-Aug-31 09:10 269 23.9
2014-Aug-31 08:55 236 4 gusting 8 23.3
2014-Aug-31 08:40 267 3 gusting 6 22.8
2014-Aug-31 08:25 260 22.2
2014-Aug-31 08:09 260 22.2
2014-Aug-31 07:54 243 22.2
2014-Aug-31 07:39 155 21.7
2014-Aug-31 07:24 155 20.6
2014-Aug-31 07:09 155 20.0
2014-Aug-31 06:54 155 19.4
2014-Aug-31 06:39 155 18.9
2014-Aug-31 06:24 155 18.3
2014-Aug-31 06:09 155 18.3
2014-Aug-31 05:54 155 18.3
2014-Aug-31 05:39 155 18.3
2014-Aug-31 05:24 155 18.3
2014-Aug-31 05:09 155 18.3
2014-Aug-31 04:54 155 18.3
2014-Aug-31 04:39 155 18.9
2014-Aug-31 04:24 155 18.9
2014-Aug-31 04:09 155 18.9
2014-Aug-31 03:54 155 18.9
2014-Aug-31 03:39 155 19.4
2014-Aug-31 03:24 155 19.4
2014-Aug-31 03:09 155 19.4
2014-Aug-31 02:54 155 19.4
2014-Aug-31 02:39 155 20.0
2014-Aug-31 02:24 155 20.0
2014-Aug-31 02:08 155 20.6
2014-Aug-31 01:53 155 20.6
2014-Aug-31 01:38 155 20.6
2014-Aug-31 01:23 155 20.6
2014-Aug-31 01:08 155 21.1
2014-Aug-31 00:53 155 21.7
2014-Aug-31 00:38 155 21.7
2014-Aug-31 00:23 155 22.2
2014-Aug-31 00:08 155 21.7
2014-Aug-30 23:53 127 2 gusting 8 22.2
2014-Aug-30 23:38 161 5 gusting 9 22.2
2014-Aug-30 23:23 171 1 gusting 6 21.7
2014-Aug-30 23:08 193 1 gusting 6 22.2
2014-Aug-30 22:53 196 1 gusting 5 22.8
2014-Aug-30 22:38 199 1 gusting 6 22.8
2014-Aug-30 22:23 191 0 gusting 6 23.3
2014-Aug-30 22:08 194 2 gusting 6 23.3
2014-Aug-30 21:53 194 2 gusting 6 23.3
2014-Aug-30 21:38 209 3 gusting 6 23.3
2014-Aug-30 21:23 202 23.9
2014-Aug-30 21:08 179 25.0
2014-Aug-30 20:53 179 1 gusting 3 25.0
2014-Aug-30 20:38 179 1 gusting 4 24.4
2014-Aug-30 20:23 180 1 gusting 3 25.0
2014-Aug-30 20:08 180 25.6
2014-Aug-30 19:53 180 25.6
2014-Aug-30 19:38 180 2 gusting 3 26.1
2014-Aug-30 19:23 180 0 gusting 3 26.7
2014-Aug-30 19:08 185 1 gusting 5 26.7
2014-Aug-30 18:53 221 0 gusting 4 27.2
2014-Aug-30 18:38 211 2 gusting 6 27.8
2014-Aug-30 18:23 223 2 gusting 7 28.3
2014-Aug-30 18:08 231 4 gusting 6 28.9
2014-Aug-30 17:53 219 3 gusting 6 29.4
2014-Aug-30 17:38 253 6 gusting 9 30.0
2014-Aug-30 17:23 272 1 gusting 7 30.6
2014-Aug-30 17:08 241 3 gusting 8 31.1
2014-Aug-30 16:53 208 30.6
2014-Aug-30 16:38 241 30.0
2014-Aug-30 16:23 199 4 gusting 7 30.6
2014-Aug-30 16:08 197 5 gusting 11 30.6
2014-Aug-30 15:53 255 4 gusting 8 31.1
2014-Aug-30 15:38 193 31.1
2014-Aug-30 15:23 259 31.1
2014-Aug-30 15:08 183 30.0
2014-Aug-30 14:53 139 2 gusting 7 29.4
2014-Aug-30 14:37 150 2 gusting 6 29.4
2014-Aug-30 14:22 160 3 gusting 11 29.4
2014-Aug-30 14:07 147 5 gusting 12 29.4
2014-Aug-30 13:52 217 3 gusting 8 30.0
2014-Aug-30 13:37 128 5 gusting 11 30.0
2014-Aug-30 13:22 162 5 gusting 11 30.0
2014-Aug-30 13:07 261 3 gusting 11 30.0
2014-Aug-30 12:52 261 5 gusting 11 29.4
2014-Aug-30 12:37 259 6 gusting 13 30.0
2014-Aug-30 12:22 171 1 gusting 8 30.0
2014-Aug-30 12:07 209 4 gusting 8 30.0
2014-Aug-30 11:52 178 2 gusting 7 30.6
2014-Aug-30 11:37 355 2 gusting 7 30.0
2014-Aug-30 11:22 337 29.4
2014-Aug-30 11:07 011 28.3